sensor_id;sensor_type;location;lat;lon;timestamp;temperature;humidity
25918;DHT22;13899;51.174;4.456;2023-05-07T00:00:24;18.60;99.90
25918;DHT22;13899;51.174;4.456;2023-05-07T00:02:51;18.60;99.90
25918;DHT22;13899;51.174;4.456;2023-05-07T00:05:16;18.60;99.90
25918;DHT22;13899;51.174;4.456;2023-05-07T00:07:42;18.40;99.90
25918;DHT22;13899;51.174;4.456;2023-05-07T00:10:09;18.60;99.90
25918;DHT22;13899;51.174;4.456;2023-05-07T00:12:35;18.60;99.90
25918;DHT22;13899;51.174;4.456;2023-05-07T00:15:05;18.60;99.90
25918;DHT22;13899;51.174;4.456;2023-05-07T00:17:32;18.60;99.90
25918;DHT22;13899;51.174;4.456;2023-05-07T00:19:58;18.50;99.90
25918;DHT22;13899;51.174;4.456;2023-05-07T00:22:23;18.60;99.90
25918;DHT22;13899;51.174;4.456;2023-05-07T00:24:49;18.60;99.90
25918;DHT22;13899;51.174;4.456;2023-05-07T00:27:16;18.60;99.90
25918;DHT22;13899;51.174;4.456;2023-05-07T00:29:41;18.70;99.90
25918;DHT22;13899;51.174;4.456;2023-05-07T00:32:08;18.70;99.90
25918;DHT22;13899;51.174;4.456;2023-05-07T00:34:34;18.60;99.90
25918;DHT22;13899;51.174;4.456;2023-05-07T00:37:01;18.60;99.90
25918;DHT22;13899;51.174;4.456;2023-05-07T00:39:26;18.60;99.90
25918;DHT22;13899;51.174;4.456;2023-05-07T00:41:52;18.60;99.90
25918;DHT22;13899;51.174;4.456;2023-05-07T00:44:18;18.60;99.90
25918;DHT22;13899;51.174;4.456;2023-05-07T00:46:43;18.60;99.90
25918;DHT22;13899;51.174;4.456;2023-05-07T00:49:10;18.60;99.90
25918;DHT22;13899;51.174;4.456;2023-05-07T00:51:37;18.50;99.90
25918;DHT22;13899;51.174;4.456;2023-05-07T00:54:03;18.50;99.90
25918;DHT22;13899;51.174;4.456;2023-05-07T00:56:29;18.30;99.90
25918;DHT22;13899;51.174;4.456;2023-05-07T00:58:55;18.20;99.90
25918;DHT22;13899;51.174;4.456;2023-05-07T01:01:20;18.20;99.90
25918;DHT22;13899;51.174;4.456;2023-05-07T01:03:46;18.10;99.90
25918;DHT22;13899;51.174;4.456;2023-05-07T01:06:13;18.10;99.90
25918;DHT22;13899;51.174;4.456;2023-05-07T01:08:42;18.10;99.90
25918;DHT22;13899;51.174;4.456;2023-05-07T01:11:08;18.10;99.90
25918;DHT22;13899;51.174;4.456;2023-05-07T01:13:35;18.10;99.90
25918;DHT22;13899;51.174;4.456;2023-05-07T01:16:02;18.10;99.90
25918;DHT22;13899;51.174;4.456;2023-05-07T01:18:28;18.20;99.90
25918;DHT22;13899;51.174;4.456;2023-05-07T01:20:55;18.10;99.90
25918;DHT22;13899;51.174;4.456;2023-05-07T01:23:23;18.20;99.90
25918;DHT22;13899;51.174;4.456;2023-05-07T01:25:54;17.90;99.90
25918;DHT22;13899;51.174;4.456;2023-05-07T01:28:20;18.00;99.90
25918;DHT22;13899;51.174;4.456;2023-05-07T01:30:55;17.90;99.90
25918;DHT22;13899;51.174;4.456;2023-05-07T01:33:22;18.00;99.90
25918;DHT22;13899;51.174;4.456;2023-05-07T01:35:51;18.00;99.90
25918;DHT22;13899;51.174;4.456;2023-05-07T01:38:18;18.10;99.90
25918;DHT22;13899;51.174;4.456;2023-05-07T01:40:45;18.10;99.90
25918;DHT22;13899;51.174;4.456;2023-05-07T01:43:11;18.10;99.90
25918;DHT22;13899;51.174;4.456;2023-05-07T01:45:38;17.90;99.90
25918;DHT22;13899;51.174;4.456;2023-05-07T01:48:05;17.90;99.90
25918;DHT22;13899;51.174;4.456;2023-05-07T01:50:32;17.80;99.90
25918;DHT22;13899;51.174;4.456;2023-05-07T01:52:58;17.90;99.90
25918;DHT22;13899;51.174;4.456;2023-05-07T01:55:24;17.90;99.90
25918;DHT22;13899;51.174;4.456;2023-05-07T01:57:49;17.80;99.90
25918;DHT22;13899;51.174;4.456;2023-05-07T02:00:15;17.70;99.90
25918;DHT22;13899;51.174;4.456;2023-05-07T02:02:41;17.70;99.90
25918;DHT22;13899;51.174;4.456;2023-05-07T02:05:07;17.70;99.90
25918;DHT22;13899;51.174;4.456;2023-05-07T02:07:33;17.70;99.90
25918;DHT22;13899;51.174;4.456;2023-05-07T02:09:58;17.70;99.90
25918;DHT22;13899;51.174;4.456;2023-05-07T02:12:24;17.60;99.90
25918;DHT22;13899;51.174;4.456;2023-05-07T02:14:50;17.60;99.90
25918;DHT22;13899;51.174;4.456;2023-05-07T02:17:15;17.50;99.90
25918;DHT22;13899;51.174;4.456;2023-05-07T02:19:41;17.50;99.90
25918;DHT22;13899;51.174;4.456;2023-05-07T02:22:07;17.50;99.90
25918;DHT22;13899;51.174;4.456;2023-05-07T02:24:33;17.60;99.90
25918;DHT22;13899;51.174;4.456;2023-05-07T02:26:59;17.60;99.90
25918;DHT22;13899;51.174;4.456;2023-05-07T02:29:24;17.60;99.90
25918;DHT22;13899;51.174;4.456;2023-05-07T02:31:50;17.60;99.90
25918;DHT22;13899;51.174;4.456;2023-05-07T02:34:18;17.60;99.90
25918;DHT22;13899;51.174;4.456;2023-05-07T02:36:44;17.70;99.90
25918;DHT22;13899;51.174;4.456;2023-05-07T02:39:11;17.70;99.90
25918;DHT22;13899;51.174;4.456;2023-05-07T02:41:37;17.70;99.90
25918;DHT22;13899;51.174;4.456;2023-05-07T02:44:03;17.70;99.90
25918;DHT22;13899;51.174;4.456;2023-05-07T02:46:29;17.70;99.90
25918;DHT22;13899;51.174;4.456;2023-05-07T02:48:55;17.70;99.90
25918;DHT22;13899;51.174;4.456;2023-05-07T02:51:22;17.80;99.90
25918;DHT22;13899;51.174;4.456;2023-05-07T02:53:48;17.80;99.90
25918;DHT22;13899;51.174;4.456;2023-05-07T02:56:13;17.80;99.90
25918;DHT22;13899;51.174;4.456;2023-05-07T02:58:40;17.90;99.90
25918;DHT22;13899;51.174;4.456;2023-05-07T03:01:06;17.90;99.90
25918;DHT22;13899;51.174;4.456;2023-05-07T03:03:32;17.90;99.90
25918;DHT22;13899;51.174;4.456;2023-05-07T03:05:57;17.90;99.90
25918;DHT22;13899;51.174;4.456;2023-05-07T03:08:24;18.00;99.90
25918;DHT22;13899;51.174;4.456;2023-05-07T03:10:50;18.00;99.90
25918;DHT22;13899;51.174;4.456;2023-05-07T03:13:16;18.10;99.90
25918;DHT22;13899;51.174;4.456;2023-05-07T03:15:41;18.00;99.90
25918;DHT22;13899;51.174;4.456;2023-05-07T03:18:07;18.00;99.90
25918;DHT22;13899;51.174;4.456;2023-05-07T03:20:33;18.10;99.90
25918;DHT22;13899;51.174;4.456;2023-05-07T03:22:58;18.10;99.90
25918;DHT22;13899;51.174;4.456;2023-05-07T03:25:24;18.20;99.90
25918;DHT22;13899;51.174;4.456;2023-05-07T03:27:50;18.20;99.90
25918;DHT22;13899;51.174;4.456;2023-05-07T03:30:16;18.20;99.90
25918;DHT22;13899;51.174;4.456;2023-05-07T03:32:41;18.10;99.90
25918;DHT22;13899;51.174;4.456;2023-05-07T03:35:07;18.00;99.90
25918;DHT22;13899;51.174;4.456;2023-05-07T03:37:33;18.10;99.90
25918;DHT22;13899;51.174;4.456;2023-05-07T03:39:59;18.00;99.90
25918;DHT22;13899;51.174;4.456;2023-05-07T03:42:24;18.00;99.90
25918;DHT22;13899;51.174;4.456;2023-05-07T03:44:50;18.00;99.90
25918;DHT22;13899;51.174;4.456;2023-05-07T03:47:16;18.10;99.90
25918;DHT22;13899;51.174;4.456;2023-05-07T03:49:41;18.10;99.90
25918;DHT22;13899;51.174;4.456;2023-05-07T03:52:07;18.00;99.90
25918;DHT22;13899;51.174;4.456;2023-05-07T03:54:33;17.70;99.90
25918;DHT22;13899;51.174;4.456;2023-05-07T03:56:59;17.80;99.90
25918;DHT22;13899;51.174;4.456;2023-05-07T03:59:25;17.80;99.90
25918;DHT22;13899;51.174;4.456;2023-05-07T04:01:51;17.80;99.90
25918;DHT22;13899;51.174;4.456;2023-05-07T04:04:17;17.80;99.90
25918;DHT22;13899;51.174;4.456;2023-05-07T04:06:42;17.80;99.90
25918;DHT22;13899;51.174;4.456;2023-05-07T04:09:09;17.80;99.90
25918;DHT22;13899;51.174;4.456;2023-05-07T04:11:35;17.80;99.90
25918;DHT22;13899;51.174;4.456;2023-05-07T04:14:01;17.80;99.90
25918;DHT22;13899;51.174;4.456;2023-05-07T04:16:27;17.80;99.90
25918;DHT22;13899;51.174;4.456;2023-05-07T04:18:52;17.80;99.90
25918;DHT22;13899;51.174;4.456;2023-05-07T04:21:19;17.80;99.90
25918;DHT22;13899;51.174;4.456;2023-05-07T04:23:46;17.70;99.90
25918;DHT22;13899;51.174;4.456;2023-05-07T04:26:12;17.80;99.90
25918;DHT22;13899;51.174;4.456;2023-05-07T04:28:38;18.00;99.90
25918;DHT22;13899;51.174;4.456;2023-05-07T04:31:04;18.10;99.90
25918;DHT22;13899;51.174;4.456;2023-05-07T04:33:31;18.20;99.90
25918;DHT22;13899;51.174;4.456;2023-05-07T04:35:56;18.10;99.90
25918;DHT22;13899;51.174;4.456;2023-05-07T04:38:22;18.20;99.90
25918;DHT22;13899;51.174;4.456;2023-05-07T04:40:49;18.20;99.90
25918;DHT22;13899;51.174;4.456;2023-05-07T04:43:15;18.20;99.90
25918;DHT22;13899;51.174;4.456;2023-05-07T04:45:41;18.30;99.90
25918;DHT22;13899;51.174;4.456;2023-05-07T04:48:10;18.40;99.90
25918;DHT22;13899;51.174;4.456;2023-05-07T04:50:36;18.40;99.90
25918;DHT22;13899;51.174;4.456;2023-05-07T04:53:01;18.40;99.90
25918;DHT22;13899;51.174;4.456;2023-05-07T04:55:28;18.40;99.90
25918;DHT22;13899;51.174;4.456;2023-05-07T04:57:54;18.50;99.90
25918;DHT22;13899;51.174;4.456;2023-05-07T05:00:19;18.50;99.90
25918;DHT22;13899;51.174;4.456;2023-05-07T05:02:45;18.50;99.90
25918;DHT22;13899;51.174;4.456;2023-05-07T05:05:11;18.60;99.90
25918;DHT22;13899;51.174;4.456;2023-05-07T05:07:37;18.60;99.90
25918;DHT22;13899;51.174;4.456;2023-05-07T05:10:04;18.60;99.90
25918;DHT22;13899;51.174;4.456;2023-05-07T05:12:31;18.60;99.90
25918;DHT22;13899;51.174;4.456;2023-05-07T05:14:56;18.60;99.90
25918;DHT22;13899;51.174;4.456;2023-05-07T05:17:22;18.50;99.90
25918;DHT22;13899;51.174;4.456;2023-05-07T05:19:48;18.60;99.90
25918;DHT22;13899;51.174;4.456;2023-05-07T05:22:13;18.60;99.90
25918;DHT22;13899;51.174;4.456;2023-05-07T05:24:39;18.60;99.90
25918;DHT22;13899;51.174;4.456;2023-05-07T05:27:05;18.90;99.90
25918;DHT22;13899;51.174;4.456;2023-05-07T05:29:31;18.90;99.90
25918;DHT22;13899;51.174;4.456;2023-05-07T05:31:59;19.00;99.90
25918;DHT22;13899;51.174;4.456;2023-05-07T05:34:25;19.00;99.90
25918;DHT22;13899;51.174;4.456;2023-05-07T05:36:50;19.10;99.90
25918;DHT22;13899;51.174;4.456;2023-05-07T05:39:16;19.10;99.90
25918;DHT22;13899;51.174;4.456;2023-05-07T05:41:42;19.10;99.90
25918;DHT22;13899;51.174;4.456;2023-05-07T05:44:11;19.10;99.90
25918;DHT22;13899;51.174;4.456;2023-05-07T05:46:36;19.20;99.90
25918;DHT22;13899;51.174;4.456;2023-05-07T05:49:02;19.20;99.90
25918;DHT22;13899;51.174;4.456;2023-05-07T05:51:27;19.00;99.90
25918;DHT22;13899;51.174;4.456;2023-05-07T05:53:53;19.10;99.90
25918;DHT22;13899;51.174;4.456;2023-05-07T05:56:19;19.30;99.90
25918;DHT22;13899;51.174;4.456;2023-05-07T05:58:45;19.30;99.90
25918;DHT22;13899;51.174;4.456;2023-05-07T06:01:11;19.30;99.90
25918;DHT22;13899;51.174;4.456;2023-05-07T06:03:37;19.50;99.90
25918;DHT22;13899;51.174;4.456;2023-05-07T06:06:03;19.60;99.90
25918;DHT22;13899;51.174;4.456;2023-05-07T06:08:31;19.60;99.90
25918;DHT22;13899;51.174;4.456;2023-05-07T06:10:58;19.60;99.90
25918;DHT22;13899;51.174;4.456;2023-05-07T06:13:24;19.70;99.90
25918;DHT22;13899;51.174;4.456;2023-05-07T06:15:49;19.70;99.90
25918;DHT22;13899;51.174;4.456;2023-05-07T06:18:15;19.70;99.90
25918;DHT22;13899;51.174;4.456;2023-05-07T06:20:41;19.20;99.90
25918;DHT22;13899;51.174;4.456;2023-05-07T06:23:07;19.10;99.90
25918;DHT22;13899;51.174;4.456;2023-05-07T06:25:32;19.60;99.90
25918;DHT22;13899;51.174;4.456;2023-05-07T06:27:58;19.90;99.90
25918;DHT22;13899;51.174;4.456;2023-05-07T06:30:24;20.00;99.90
25918;DHT22;13899;51.174;4.456;2023-05-07T06:32:49;20.20;99.90
25918;DHT22;13899;51.174;4.456;2023-05-07T06:35:15;20.10;99.90
25918;DHT22;13899;51.174;4.456;2023-05-07T06:37:41;20.30;99.90
25918;DHT22;13899;51.174;4.456;2023-05-07T06:40:08;20.00;99.90
25918;DHT22;13899;51.174;4.456;2023-05-07T06:42:34;20.30;99.90
25918;DHT22;13899;51.174;4.456;2023-05-07T06:45:00;20.60;99.90
25918;DHT22;13899;51.174;4.456;2023-05-07T06:47:26;20.40;99.90
25918;DHT22;13899;51.174;4.456;2023-05-07T06:49:52;20.10;99.90
25918;DHT22;13899;51.174;4.456;2023-05-07T06:52:17;20.40;99.90
25918;DHT22;13899;51.174;4.456;2023-05-07T06:54:43;20.50;99.90
25918;DHT22;13899;51.174;4.456;2023-05-07T06:57:08;20.50;99.90
25918;DHT22;13899;51.174;4.456;2023-05-07T06:59:35;20.20;99.90
25918;DHT22;13899;51.174;4.456;2023-05-07T07:02:01;19.90;99.90
25918;DHT22;13899;51.174;4.456;2023-05-07T07:04:27;20.00;99.90
25918;DHT22;13899;51.174;4.456;2023-05-07T07:06:54;19.00;99.90
25918;DHT22;13899;51.174;4.456;2023-05-07T07:09:27;18.70;99.90
25918;DHT22;13899;51.174;4.456;2023-05-07T07:11:53;18.10;99.90
25918;DHT22;13899;51.174;4.456;2023-05-07T07:14:19;18.60;99.90
25918;DHT22;13899;51.174;4.456;2023-05-07T07:16:48;18.90;99.90
25918;DHT22;13899;51.174;4.456;2023-05-07T07:19:14;18.60;99.90
25918;DHT22;13899;51.174;4.456;2023-05-07T07:21:42;17.90;99.90
25918;DHT22;13899;51.174;4.456;2023-05-07T07:24:09;17.80;99.90
25918;DHT22;13899;51.174;4.456;2023-05-07T07:26:36;18.30;99.90
25918;DHT22;13899;51.174;4.456;2023-05-07T07:29:02;18.30;99.90
25918;DHT22;13899;51.174;4.456;2023-05-07T07:31:27;18.90;99.90
25918;DHT22;13899;51.174;4.456;2023-05-07T07:33:54;19.20;99.90
25918;DHT22;13899;51.174;4.456;2023-05-07T07:36:20;19.40;99.90
25918;DHT22;13899;51.174;4.456;2023-05-07T07:38:46;19.70;99.90
25918;DHT22;13899;51.174;4.456;2023-05-07T07:41:11;20.10;99.90
25918;DHT22;13899;51.174;4.456;2023-05-07T07:43:37;19.90;99.90
25918;DHT22;13899;51.174;4.456;2023-05-07T07:46:03;19.80;99.90
25918;DHT22;13899;51.174;4.456;2023-05-07T07:48:28;20.10;99.90
25918;DHT22;13899;51.174;4.456;2023-05-07T07:50:54;20.20;99.90
25918;DHT22;13899;51.174;4.456;2023-05-07T07:53:20;20.70;99.90
25918;DHT22;13899;51.174;4.456;2023-05-07T07:55:45;21.20;99.90
25918;DHT22;13899;51.174;4.456;2023-05-07T07:58:11;20.50;99.90
25918;DHT22;13899;51.174;4.456;2023-05-07T08:00:37;19.90;99.90
25918;DHT22;13899;51.174;4.456;2023-05-07T08:03:02;20.20;99.90
25918;DHT22;13899;51.174;4.456;2023-05-07T08:05:29;19.70;99.90
25918;DHT22;13899;51.174;4.456;2023-05-07T08:07:55;18.60;99.90
25918;DHT22;13899;51.174;4.456;2023-05-07T08:10:21;18.60;99.90
25918;DHT22;13899;51.174;4.456;2023-05-07T08:12:50;19.00;99.90
25918;DHT22;13899;51.174;4.456;2023-05-07T08:15:16;18.50;99.90
25918;DHT22;13899;51.174;4.456;2023-05-07T08:17:43;18.70;99.90
25918;DHT22;13899;51.174;4.456;2023-05-07T08:20:09;19.20;99.90
25918;DHT22;13899;51.174;4.456;2023-05-07T08:22:36;19.20;99.90
25918;DHT22;13899;51.174;4.456;2023-05-07T08:25:02;19.10;99.90
25918;DHT22;13899;51.174;4.456;2023-05-07T08:27:28;18.90;99.90
25918;DHT22;13899;51.174;4.456;2023-05-07T08:29:53;19.40;99.90
25918;DHT22;13899;51.174;4.456;2023-05-07T08:32:20;19.70;99.90
25918;DHT22;13899;51.174;4.456;2023-05-07T08:34:46;19.90;99.90
25918;DHT22;13899;51.174;4.456;2023-05-07T08:37:11;19.70;99.90
25918;DHT22;13899;51.174;4.456;2023-05-07T08:39:37;19.90;99.90
25918;DHT22;13899;51.174;4.456;2023-05-07T08:42:04;20.10;99.90
25918;DHT22;13899;51.174;4.456;2023-05-07T08:44:38;19.70;99.90
25918;DHT22;13899;51.174;4.456;2023-05-07T08:47:06;19.70;99.90
25918;DHT22;13899;51.174;4.456;2023-05-07T08:49:33;20.50;99.90
25918;DHT22;13899;51.174;4.456;2023-05-07T08:52:00;20.80;99.90
25918;DHT22;13899;51.174;4.456;2023-05-07T08:54:27;21.40;99.90
25918;DHT22;13899;51.174;4.456;2023-05-07T08:56:54;21.40;99.90
25918;DHT22;13899;51.174;4.456;2023-05-07T08:59:20;21.80;99.90
25918;DHT22;13899;51.174;4.456;2023-05-07T09:01:46;22.10;99.90
25918;DHT22;13899;51.174;4.456;2023-05-07T09:04:12;22.20;99.90
25918;DHT22;13899;51.174;4.456;2023-05-07T09:06:38;21.10;99.90
25918;DHT22;13899;51.174;4.456;2023-05-07T09:09:07;20.50;99.90
25918;DHT22;13899;51.174;4.456;2023-05-07T09:11:33;19.60;99.90
25918;DHT22;13899;51.174;4.456;2023-05-07T09:13:59;19.50;99.90
25918;DHT22;13899;51.174;4.456;2023-05-07T09:16:29;19.90;99.90
25918;DHT22;13899;51.174;4.456;2023-05-07T09:18:58;20.00;99.90
25918;DHT22;13899;51.174;4.456;2023-05-07T09:21:25;20.60;99.90
25918;DHT22;13899;51.174;4.456;2023-05-07T09:23:52;19.70;99.90
25918;DHT22;13899;51.174;4.456;2023-05-07T09:26:18;19.00;99.90
25918;DHT22;13899;51.174;4.456;2023-05-07T09:28:44;18.80;99.90
25918;DHT22;13899;51.174;4.456;2023-05-07T09:31:11;19.10;99.90
25918;DHT22;13899;51.174;4.456;2023-05-07T09:33:38;19.60;99.90
25918;DHT22;13899;51.174;4.456;2023-05-07T09:36:05;20.00;99.90
25918;DHT22;13899;51.174;4.456;2023-05-07T09:38:32;20.20;99.90
25918;DHT22;13899;51.174;4.456;2023-05-07T09:43:32;19.00;99.90
25918;DHT22;13899;51.174;4.456;2023-05-07T09:46:03;19.30;99.90
25918;DHT22;13899;51.174;4.456;2023-05-07T09:48:29;19.60;99.90
25918;DHT22;13899;51.174;4.456;2023-05-07T09:50:55;19.40;99.90
25918;DHT22;13899;51.174;4.456;2023-05-07T09:53:24;20.00;99.90
25918;DHT22;13899;51.174;4.456;2023-05-07T09:55:51;19.20;99.90
25918;DHT22;13899;51.174;4.456;2023-05-07T09:58:18;19.50;99.90
25918;DHT22;13899;51.174;4.456;2023-05-07T10:00:44;19.00;99.90
25918;DHT22;13899;51.174;4.456;2023-05-07T10:03:11;18.90;99.90
25918;DHT22;13899;51.174;4.456;2023-05-07T10:05:38;18.30;99.90
25918;DHT22;13899;51.174;4.456;2023-05-07T10:08:05;17.90;99.90
25918;DHT22;13899;51.174;4.456;2023-05-07T10:10:32;17.90;99.90
25918;DHT22;13899;51.174;4.456;2023-05-07T10:12:58;18.10;99.90
25918;DHT22;13899;51.174;4.456;2023-05-07T10:15:24;18.20;99.90
25918;DHT22;13899;51.174;4.456;2023-05-07T10:17:51;18.70;99.90
25918;DHT22;13899;51.174;4.456;2023-05-07T10:20:18;18.40;99.90
25918;DHT22;13899;51.174;4.456;2023-05-07T10:22:45;18.10;99.90
25918;DHT22;13899;51.174;4.456;2023-05-07T10:25:26;18.30;99.90
25918;DHT22;13899;51.174;4.456;2023-05-07T10:27:55;18.70;99.90
25918;DHT22;13899;51.174;4.456;2023-05-07T10:33:17;19.40;99.90
25918;DHT22;13899;51.174;4.456;2023-05-07T10:35:46;20.00;99.90
25918;DHT22;13899;51.174;4.456;2023-05-07T10:38:13;20.10;99.90
25918;DHT22;13899;51.174;4.456;2023-05-07T10:40:39;19.20;99.90
25918;DHT22;13899;51.174;4.456;2023-05-07T10:43:05;18.60;99.90
25918;DHT22;13899;51.174;4.456;2023-05-07T10:45:32;18.80;99.90
25918;DHT22;13899;51.174;4.456;2023-05-07T10:48:12;18.60;99.90
25918;DHT22;13899;51.174;4.456;2023-05-07T10:50:39;18.60;99.90
25918;DHT22;13899;51.174;4.456;2023-05-07T11:02:05;20.10;99.90
25918;DHT22;13899;51.174;4.456;2023-05-07T11:04:32;19.30;99.90
25918;DHT22;13899;51.174;4.456;2023-05-07T11:15:10;19.60;99.90
25918;DHT22;13899;51.174;4.456;2023-05-07T11:17:57;20.40;99.90
25918;DHT22;13899;51.174;4.456;2023-05-07T11:20:51;19.00;99.90
25918;DHT22;13899;51.174;4.456;2023-05-07T11:26:04;18.30;99.90
25918;DHT22;13899;51.174;4.456;2023-05-07T11:28:31;18.50;99.90
25918;DHT22;13899;51.174;4.456;2023-05-07T11:31:02;18.80;99.90
25918;DHT22;13899;51.174;4.456;2023-05-07T11:33:29;19.10;99.90
25918;DHT22;13899;51.174;4.456;2023-05-07T11:35:57;19.50;99.90
25918;DHT22;13899;51.174;4.456;2023-05-07T11:38:23;19.80;99.90
25918;DHT22;13899;51.174;4.456;2023-05-07T11:40:52;20.30;99.90
25918;DHT22;13899;51.174;4.456;2023-05-07T11:43:18;21.10;99.90
25918;DHT22;13899;51.174;4.456;2023-05-07T11:45:45;21.10;99.90
25918;DHT22;13899;51.174;4.456;2023-05-07T11:48:12;20.90;99.90
25918;DHT22;13899;51.174;4.456;2023-05-07T11:53:40;21.60;99.90
25918;DHT22;13899;51.174;4.456;2023-05-07T11:56:07;21.40;99.90
25918;DHT22;13899;51.174;4.456;2023-05-07T11:58:34;21.80;99.90
25918;DHT22;13899;51.174;4.456;2023-05-07T12:01:00;22.20;99.90
25918;DHT22;13899;51.174;4.456;2023-05-07T12:03:26;22.50;99.90
25918;DHT22;13899;51.174;4.456;2023-05-07T12:05:52;22.60;99.90
25918;DHT22;13899;51.174;4.456;2023-05-07T12:08:18;21.30;99.90
25918;DHT22;13899;51.174;4.456;2023-05-07T12:10:46;20.90;99.90
25918;DHT22;13899;51.174;4.456;2023-05-07T12:13:21;20.00;99.90
25918;DHT22;13899;51.174;4.456;2023-05-07T12:15:57;20.10;99.90
25918;DHT22;13899;51.174;4.456;2023-05-07T12:18:23;21.10;99.90
25918;DHT22;13899;51.174;4.456;2023-05-07T12:20:50;21.00;99.90
25918;DHT22;13899;51.174;4.456;2023-05-07T12:23:17;21.20;99.90
25918;DHT22;13899;51.174;4.456;2023-05-07T12:25:43;21.60;99.90
25918;DHT22;13899;51.174;4.456;2023-05-07T12:28:17;20.90;99.90
25918;DHT22;13899;51.174;4.456;2023-05-07T12:30:47;20.90;99.90
25918;DHT22;13899;51.174;4.456;2023-05-07T12:33:17;21.60;99.90
25918;DHT22;13899;51.174;4.456;2023-05-07T12:35:43;22.00;99.90
25918;DHT22;13899;51.174;4.456;2023-05-07T12:38:11;22.00;99.90
25918;DHT22;13899;51.174;4.456;2023-05-07T12:40:42;22.40;99.90
25918;DHT22;13899;51.174;4.456;2023-05-07T12:43:25;21.90;99.90
25918;DHT22;13899;51.174;4.456;2023-05-07T12:45:53;21.60;99.90
25918;DHT22;13899;51.174;4.456;2023-05-07T12:48:19;21.70;99.90
25918;DHT22;13899;51.174;4.456;2023-05-07T12:50:48;20.40;99.90
25918;DHT22;13899;51.174;4.456;2023-05-07T12:53:14;20.90;99.90
25918;DHT22;13899;51.174;4.456;2023-05-07T12:55:45;21.30;99.90
25918;DHT22;13899;51.174;4.456;2023-05-07T12:58:19;21.90;99.90
25918;DHT22;13899;51.174;4.456;2023-05-07T13:00:48;22.50;99.90
25918;DHT22;13899;51.174;4.456;2023-05-07T13:03:27;23.10;99.90
25918;DHT22;13899;51.174;4.456;2023-05-07T13:05:55;23.40;99.90
25918;DHT22;13899;51.174;4.456;2023-05-07T13:08:29;23.30;99.90
25918;DHT22;13899;51.174;4.456;2023-05-07T13:10:57;23.70;99.90
25918;DHT22;13899;51.174;4.456;2023-05-07T13:13:22;22.80;99.90
25918;DHT22;13899;51.174;4.456;2023-05-07T13:15:48;22.20;99.90
25918;DHT22;13899;51.174;4.456;2023-05-07T13:18:14;23.00;99.90
25918;DHT22;13899;51.174;4.456;2023-05-07T13:20:40;23.50;99.90
25918;DHT22;13899;51.174;4.456;2023-05-07T13:23:08;23.70;99.90
25918;DHT22;13899;51.174;4.456;2023-05-07T13:25:33;24.20;99.90
25918;DHT22;13899;51.174;4.456;2023-05-07T13:27:59;24.00;99.90
25918;DHT22;13899;51.174;4.456;2023-05-07T13:30:25;23.80;99.90
25918;DHT22;13899;51.174;4.456;2023-05-07T13:32:55;24.10;99.90
25918;DHT22;13899;51.174;4.456;2023-05-07T13:35:21;24.80;99.90
25918;DHT22;13899;51.174;4.456;2023-05-07T13:37:47;25.10;99.90
25918;DHT22;13899;51.174;4.456;2023-05-07T13:40:16;24.90;99.90
25918;DHT22;13899;51.174;4.456;2023-05-07T13:42:41;24.80;99.90
25918;DHT22;13899;51.174;4.456;2023-05-07T13:45:10;24.60;99.90
25918;DHT22;13899;51.174;4.456;2023-05-07T13:47:42;23.80;99.90
25918;DHT22;13899;51.174;4.456;2023-05-07T13:50:09;23.80;99.90
25918;DHT22;13899;51.174;4.456;2023-05-07T13:52:35;24.20;99.90
25918;DHT22;13899;51.174;4.456;2023-05-07T13:55:00;23.90;99.90
25918;DHT22;13899;51.174;4.456;2023-05-07T13:57:26;24.20;99.90
25918;DHT22;13899;51.174;4.456;2023-05-07T13:59:53;24.00;99.90
25918;DHT22;13899;51.174;4.456;2023-05-07T14:02:19;23.70;99.90
25918;DHT22;13899;51.174;4.456;2023-05-07T14:04:45;23.50;99.90
25918;DHT22;13899;51.174;4.456;2023-05-07T14:07:10;23.60;99.90
25918;DHT22;13899;51.174;4.456;2023-05-07T14:09:36;23.80;99.90
25918;DHT22;13899;51.174;4.456;2023-05-07T14:12:02;22.80;99.90
25918;DHT22;13899;51.174;4.456;2023-05-07T14:14:27;23.30;99.90
25918;DHT22;13899;51.174;4.456;2023-05-07T14:16:53;24.00;99.90
25918;DHT22;13899;51.174;4.456;2023-05-07T14:19:19;23.70;99.90
25918;DHT22;13899;51.174;4.456;2023-05-07T14:21:47;24.10;99.90
25918;DHT22;13899;51.174;4.456;2023-05-07T14:24:13;24.10;99.90
25918;DHT22;13899;51.174;4.456;2023-05-07T14:26:40;24.50;99.90
25918;DHT22;13899;51.174;4.456;2023-05-07T14:29:06;24.70;99.90
25918;DHT22;13899;51.174;4.456;2023-05-07T14:31:31;24.90;99.90
25918;DHT22;13899;51.174;4.456;2023-05-07T14:33:58;24.20;99.90
25918;DHT22;13899;51.174;4.456;2023-05-07T14:36:24;24.30;99.90
25918;DHT22;13899;51.174;4.456;2023-05-07T14:38:52;24.50;99.90
25918;DHT22;13899;51.174;4.456;2023-05-07T14:41:22;24.70;99.90
25918;DHT22;13899;51.174;4.456;2023-05-07T14:43:47;24.80;99.90
25918;DHT22;13899;51.174;4.456;2023-05-07T14:46:18;25.20;99.90
25918;DHT22;13899;51.174;4.456;2023-05-07T14:48:44;25.10;99.90
25918;DHT22;13899;51.174;4.456;2023-05-07T14:51:12;25.10;99.90
25918;DHT22;13899;51.174;4.456;2023-05-07T14:53:38;25.40;99.90
25918;DHT22;13899;51.174;4.456;2023-05-07T14:56:04;25.20;99.90
25918;DHT22;13899;51.174;4.456;2023-05-07T14:58:31;25.40;99.90
25918;DHT22;13899;51.174;4.456;2023-05-07T15:00:58;25.40;99.90
25918;DHT22;13899;51.174;4.456;2023-05-07T15:03:24;25.00;99.90
25918;DHT22;13899;51.174;4.456;2023-05-07T15:05:50;24.70;99.90
25918;DHT22;13899;51.174;4.456;2023-05-07T15:08:17;24.20;99.90
25918;DHT22;13899;51.174;4.456;2023-05-07T15:10:43;24.40;99.90
25918;DHT22;13899;51.174;4.456;2023-05-07T15:13:10;24.70;99.90
25918;DHT22;13899;51.174;4.456;2023-05-07T15:15:36;24.50;99.90
25918;DHT22;13899;51.174;4.456;2023-05-07T15:18:02;24.70;99.90
25918;DHT22;13899;51.174;4.456;2023-05-07T15:20:28;24.70;99.90
25918;DHT22;13899;51.174;4.456;2023-05-07T15:22:55;24.90;99.90
25918;DHT22;13899;51.174;4.456;2023-05-07T15:25:21;25.20;99.90
25918;DHT22;13899;51.174;4.456;2023-05-07T15:27:47;25.10;99.90
25918;DHT22;13899;51.174;4.456;2023-05-07T15:30:13;25.00;99.90
25918;DHT22;13899;51.174;4.456;2023-05-07T15:32:40;24.10;99.90
25918;DHT22;13899;51.174;4.456;2023-05-07T15:35:06;24.30;99.90
25918;DHT22;13899;51.174;4.456;2023-05-07T15:37:32;24.30;99.90
25918;DHT22;13899;51.174;4.456;2023-05-07T15:39:58;23.80;99.90
25918;DHT22;13899;51.174;4.456;2023-05-07T15:42:23;24.40;99.90
25918;DHT22;13899;51.174;4.456;2023-05-07T15:44:49;24.40;99.90
25918;DHT22;13899;51.174;4.456;2023-05-07T15:47:15;24.60;99.90
25918;DHT22;13899;51.174;4.456;2023-05-07T15:49:41;25.00;99.90
25918;DHT22;13899;51.174;4.456;2023-05-07T15:52:07;23.50;99.90
25918;DHT22;13899;51.174;4.456;2023-05-07T15:54:35;22.70;99.90